Time;durP1;ratioP1;P1;durP2;ratioP2;P2;SDS_P1;SDS_P2;PMS_P1;PMS_P2;Temp;Humidity;BMP_temperature;BMP_pressure;BME280_temperature;BME280_humidity;BME280_pressure;Samples;Min_cycle;Max_cycle;Signal;HPM_P1;HPM_P2
2022/07/07 00:02:23;;;;;;;22.33;2.00;;;;;;;25.24;48.59;99822.16;7316308;19;128959;-40
2022/07/07 00:04:48;;;;;;;14.03;1.20;;;;;;;25.19;49.73;99816.56;7317475;19;129511;-38
2022/07/07 00:07:14;;;;;;;24.60;2.08;;;;;;;25.24;49.74;99824.81;7317457;19;129079;-39
2022/07/07 00:09:39;;;;;;;21.03;1.87;;;;;;;25.24;49.87;99827.44;7317392;19;129278;-38
2022/07/07 00:12:05;;;;;;;25.10;2.20;;;;;;;25.23;49.28;99823.16;7315444;19;129353;-39
2022/07/07 00:14:32;;;;;;;16.23;1.70;;;;;;;25.23;48.61;99829.25;7317074;19;131388;-39
2022/07/07 00:16:58;;;;;;;74.20;6.37;;;;;;;25.23;49.29;99815.28;7310168;19;131053;-38
2022/07/07 00:19:24;;;;;;;59.53;5.00;;;;;;;25.22;48.91;99824.16;7303395;19;130496;-42
2022/07/07 00:21:50;;;;;;;65.03;5.67;;;;;;;25.23;49.02;99818.75;7298064;19;130220;-41
2022/07/07 00:24:15;;;;;;;54.00;4.83;;;;;;;25.24;49.33;99816.91;7299747;19;131172;-40
2022/07/07 00:26:41;;;;;;;62.67;5.37;;;;;;;25.25;49.74;99818.56;7299825;19;130801;-41
2022/07/07 00:29:06;;;;;;;32.77;2.73;;;;;;;25.24;49.74;99809.84;7306536;19;129644;-42
2022/07/07 00:31:32;;;;;;;20.07;1.57;;;;;;;25.25;49.51;99813.31;7315708;19;129079;-38
2022/07/07 00:33:58;;;;;;;42.47;3.57;;;;;;;25.25;49.67;99808.06;7315632;19;129128;-38
2022/07/07 00:36:23;;;;;;;21.27;1.83;;;;;;;25.24;49.77;99809.84;7317596;19;129121;-39
2022/07/07 00:38:49;;;;;;;24.97;2.13;;;;;;;25.23;49.50;99805.56;7316217;19;129472;-43
2022/07/07 00:41:15;;;;;;;20.02;1.70;;;;;;;25.23;49.72;99802.94;7314318;19;129171;-38
2022/07/07 00:43:43;;;;;;;23.55;2.22;;;;;;;25.24;49.54;99804.59;7317065;19;130681;-40
2022/07/07 00:46:08;;;;;;;18.25;1.70;;;;;;;25.17;49.51;99794.88;7315572;19;129401;-39
2022/07/07 00:48:36;;;;;;;20.10;1.80;;;;;;;25.23;48.66;99804.75;7317044;19;129862;-38
2022/07/07 00:51:04;;;;;;;11.52;1.15;;;;;;;25.20;50.26;99795.38;7314424;19;129147;-39
2022/07/07 00:53:30;;;;;;;12.68;1.25;;;;;;;25.22;49.68;99797.84;7313273;19;129476;-38
2022/07/07 00:55:55;;;;;;;24.77;2.10;;;;;;;25.23;49.21;99794.22;7313573;19;129715;-42
2022/07/07 00:58:21;;;;;;;38.60;2.95;;;;;;;25.23;49.33;99788.97;7315185;19;130202;-38
2022/07/07 01:00:47;;;;;;;27.67;2.40;;;;;;;25.22;49.77;99792.59;7315078;19;129773;-39
2022/07/07 01:03:13;;;;;;;27.17;2.13;;;;;;;25.24;49.72;99795.84;7313253;19;130256;-38
2022/07/07 01:05:40;;;;;;;12.30;1.30;;;;;;;25.22;50.03;99792.59;7313663;19;132582;-38
2022/07/07 01:08:08;;;;;;;;;;;;;;;25.31;51.03;99788.97;7316482;19;129368;-38
2022/07/07 01:10:34;;;;;;;53.00;4.43;;;;;;;25.25;49.83;99787.00;7315358;19;129353;-39
2022/07/07 01:13:03;;;;;;;14.83;1.37;;;;;;;25.23;50.39;99787.16;7313345;19;129432;-38
2022/07/07 01:15:29;;;;;;;18.70;1.63;;;;;;;25.24;50.15;99790.59;7314165;19;129635;-39
2022/07/07 01:17:55;;;;;;;36.07;2.77;;;;;;;25.22;50.13;99790.75;7315584;19;129108;-38
2022/07/07 01:20:21;;;;;;;31.77;2.97;;;;;;;25.22;49.73;99792.59;7312765;19;129574;-38
2022/07/07 01:22:50;;;;;;;20.53;1.87;;;;;;;25.20;49.51;99784.00;7312569;19;131005;-41
2022/07/07 01:25:15;;;;;;;23.85;2.13;;;;;;;25.22;50.10;99782.06;7313899;19;130311;-39
2022/07/07 01:27:41;;;;;;;28.97;2.53;;;;;;;25.19;48.75;99772.66;7315092;19;131968;-38
2022/07/07 01:30:06;;;;;;;23.43;1.97;;;;;;;25.23;49.77;99778.44;7316434;19;129060;-38
2022/07/07 01:32:32;;;;;;;25.30;2.20;;;;;;;25.22;49.91;99779.44;7308559;19;130625;-38
2022/07/07 01:34:57;;;;;;;42.42;3.50;;;;;;;25.22;48.95;99774.16;7314606;19;129671;-38
2022/07/07 01:37:24;;;;;;;22.50;2.03;;;;;;;25.20;49.78;99768.22;7314492;19;128999;-39
2022/07/07 01:39:50;;;;;;;28.02;2.63;;;;;;;25.23;50.01;99773.16;7314002;19;128796;-39
2022/07/07 01:42:15;;;;;;;25.20;2.40;;;;;;;25.22;49.86;99766.25;7312346;19;129368;-39
2022/07/07 01:44:42;;;;;;;19.83;1.77;;;;;;;25.22;50.14;99771.53;7314491;19;130388;-40
2022/07/07 01:47:09;;;;;;;7.88;1.13;;;;;;;25.19;49.44;99762.13;7312728;19;129275;-38
2022/07/07 01:49:34;;;;;;;;;;;;;;;25.29;51.19;99762.00;7313852;19;129714;-39
2022/07/07 01:52:00;;;;;;;20.10;1.77;;;;;;;25.24;49.35;99759.00;7312649;19;129986;-39
2022/07/07 01:54:27;;;;;;;30.02;2.80;;;;;;;25.23;49.90;99763.47;7313121;19;130326;-39
2022/07/07 01:56:52;;;;;;;23.88;2.38;;;;;;;25.22;50.47;99755.75;7314749;19;129009;-37
2022/07/07 01:59:18;;;;;;;40.23;3.53;;;;;;;25.13;49.89;99747.00;7312266;19;129271;-39
2022/07/07 02:01:43;;;;;;;18.33;1.80;;;;;;;25.20;49.25;99749.81;7310914;19;129169;-38
2022/07/07 02:04:08;;;;;;;32.33;2.90;;;;;;;25.21;49.45;99754.06;7313633;19;129758;-38
2022/07/07 02:06:34;;;;;;;13.47;1.73;;;;;;;25.20;48.39;99752.44;7313827;19;128922;-38
2022/07/07 02:08:59;;;;;;;41.07;3.30;;;;;;;25.23;49.64;99760.00;7313199;19;128773;-37
2022/07/07 02:11:26;;;;;;;16.35;1.48;;;;;;;25.22;50.13;99750.47;7312078;19;130838;-37
2022/07/07 02:13:52;;;;;;;19.50;1.90;;;;;;;25.22;50.40;99755.75;7314627;19;130655;-38
2022/07/07 02:16:20;;;;;;;19.83;1.90;;;;;;;25.22;49.67;99755.75;7314410;19;129038;-38
2022/07/07 02:18:48;;;;;;;49.95;4.60;;;;;;;25.22;49.81;99747.84;7301011;19;129876;-39
2022/07/07 02:21:14;;;;;;;62.58;5.38;;;;;;;25.21;49.92;99747.00;7296900;19;130912;-38
2022/07/07 02:23:43;;;;;;;59.17;5.40;;;;;;;25.23;51.04;99741.59;7297511;19;130824;-37
2022/07/07 02:26:09;;;;;;;39.92;3.72;;;;;;;25.23;49.89;99742.41;7299298;19;130517;-39
2022/07/07 02:28:35;;;;;;;20.63;1.90;;;;;;;25.21;50.34;99736.47;7312899;19;129517;-38
2022/07/07 02:31:01;;;;;;;31.20;2.60;;;;;;;25.23;49.61;99736.31;7311647;19;130216;-41
2022/07/07 02:33:27;;;;;;;20.33;1.80;;;;;;;25.23;50.23;99736.31;7313338;19;129410;-38
2022/07/07 02:35:54;;;;;;;16.43;1.90;;;;;;;25.22;49.84;99737.31;7312780;19;129505;-39
2022/07/07 02:38:19;;;;;;;30.77;2.90;;;;;;;25.22;49.86;99735.50;7312442;19;130425;-38
2022/07/07 02:40:45;;;;;;;63.95;5.55;;;;;;;25.22;49.94;99734.69;7310883;19;130145;-40
2022/07/07 02:43:13;;;;;;;18.60;1.98;;;;;;;25.22;50.30;99734.69;7309886;19;129210;-38
2022/07/07 02:45:40;;;;;;;68.05;5.95;;;;;;;25.20;50.45;99729.59;7311921;19;129201;-37
2022/07/07 02:48:09;;;;;;;26.20;2.45;;;;;;;25.20;49.85;99726.13;7313136;19;128803;-39
2022/07/07 02:50:35;;;;;;;45.88;4.22;;;;;;;25.21;49.85;99727.75;7310980;19;129419;-38
2022/07/07 02:53:00;;;;;;;26.87;2.43;;;;;;;25.21;49.82;99727.75;7309888;19;130295;-38
2022/07/07 02:55:26;;;;;;;23.10;2.07;;;;;;;25.22;49.75;99729.44;7310742;19;130218;-38
2022/07/07 02:57:51;;;;;;;29.53;2.33;;;;;;;25.23;50.61;99726.63;7313319;19;128900;-39
2022/07/07 03:00:17;;;;;;;27.73;2.58;;;;;;;25.20;50.46;99716.44;7311198;19;131238;-38
2022/07/07 03:02:43;;;;;;;12.20;1.25;;;;;;;25.21;50.07;99717.22;7311129;19;130167;-37
2022/07/07 03:05:10;;;;;;;47.00;3.83;;;;;;;25.20;50.22;99720.84;7312531;19;130536;-39
2022/07/07 03:07:37;;;;;;;21.45;1.83;;;;;;;25.11;50.17;99711.28;7311364;19;128878;-38
2022/07/07 03:10:03;;;;;;;37.00;3.30;;;;;;;25.13;49.98;99706.69;7311661;19;130726;-39
2022/07/07 03:12:28;;;;;;;20.55;1.67;;;;;;;25.20;49.72;99720.84;7308770;19;129747;-38
2022/07/07 03:14:54;;;;;;;19.67;2.03;;;;;;;25.21;49.61;99723.31;7311276;19;128997;-45
2022/07/07 03:17:19;;;;;;;63.20;5.40;;;;;;;25.21;49.70;99718.06;7309451;19;129474;-40
2022/07/07 03:19:44;;;;;;;20.03;1.80;;;;;;;25.21;49.78;99702.28;7318656;19;130069;-39
2022/07/07 03:22:10;;;;;;;21.90;2.07;;;;;;;25.20;49.27;99708.53;7315590;19;129531;-38
2022/07/07 03:24:35;;;;;;;17.53;1.70;;;;;;;25.13;50.45;99693.53;7318832;19;128869;-37
2022/07/07 03:27:00;;;;;;;41.83;3.80;;;;;;;25.22;49.70;99708.38;7318291;19;129340;-40
2022/07/07 03:29:26;;;;;;;4.77;0.90;;;;;;;25.20;49.72;99705.91;7319231;19;131752;-38
2022/07/07 03:31:51;;;;;;;31.70;2.60;;;;;;;25.21;50.50;99711.97;7315332;19;129430;-38
2022/07/07 03:34:17;;;;;;;36.50;2.70;;;;;;;25.13;49.59;99698.78;7312872;19;129498;-36
2022/07/07 03:36:42;;;;;;;15.23;1.58;;;;;;;25.22;50.49;99713.63;7317206;19;129468;-38
2022/07/07 03:39:07;;;;;;;22.97;2.07;;;;;;;25.20;50.08;99721.69;7316650;19;130498;-38
2022/07/07 03:41:33;;;;;;;17.27;1.60;;;;;;;25.21;49.46;99719.88;7317513;19;129587;-38
2022/07/07 03:43:58;;;;;;;44.08;3.33;;;;;;;25.21;50.42;99711.97;7315153;19;129869;-38
2022/07/07 03:46:23;;;;;;;25.57;2.27;;;;;;;25.19;49.65;99713.94;7318506;19;128984;-37
2022/07/07 03:48:49;;;;;;;26.13;2.33;;;;;;;25.19;49.57;99724.44;7315160;19;129064;-39
2022/07/07 03:51:14;;;;;;;23.93;2.23;;;;;;;25.16;49.93;99714.25;7313211;19;130248;-38
2022/07/07 03:53:40;;;;;;;7.30;1.20;;;;;;;25.19;49.36;99724.44;7317393;19;129033;-40
2022/07/07 03:56:06;;;;;;;23.90;2.27;;;;;;;25.22;49.79;99732.06;7318365;19;129441;-37
2022/07/07 03:58:31;;;;;;;23.83;2.10;;;;;;;25.18;49.97;99728.91;7316593;19;129001;-38
2022/07/07 04:00:58;;;;;;;33.00;2.67;;;;;;;25.18;50.99;99728.09;7315862;19;130159;-38
2022/07/07 04:03:23;;;;;;;22.13;2.20;;;;;;;25.16;49.88;99730.88;7313576;19;129141;-37
2022/07/07 04:05:48;;;;;;;35.10;3.13;;;;;;;25.17;49.96;99732.50;7310842;19;129834;-38
2022/07/07 04:08:14;;;;;;;23.88;2.25;;;;;;;25.18;48.76;99739.44;7315650;19;129401;-40
2022/07/07 04:10:39;;;;;;;24.97;2.43;;;;;;;25.18;49.98;99739.44;7316086;19;129255;-38
2022/07/07 04:13:05;;;;;;;19.60;1.73;;;;;;;25.10;49.51;99725.44;7314736;19;129043;-38
2022/07/07 04:15:30;;;;;;;22.52;2.05;;;;;;;25.19;50.10;99738.44;7313430;19;129599;-37
2022/07/07 04:17:55;;;;;;;23.17;2.47;;;;;;;25.19;49.95;99735.81;7314713;19;130376;-38
2022/07/07 04:20:21;;;;;;;36.17;3.30;;;;;;;25.17;49.80;99736.97;7315273;19;129629;-38
2022/07/07 04:22:46;;;;;;;27.00;2.30;;;;;;;25.18;49.81;99739.44;7315310;19;130136;-38
2022/07/07 04:25:12;;;;;;;20.20;1.77;;;;;;;25.17;49.19;99734.34;7315785;19;128850;-38
2022/07/07 04:27:37;;;;;;;24.83;2.27;;;;;;;25.17;50.29;99734.34;7317633;19;130179;-38
2022/07/07 04:30:04;;;;;;;24.60;2.07;;;;;;;25.18;50.45;99728.09;7314143;19;129136;-41
2022/07/07 04:32:29;;;;;;;14.00;1.42;;;;;;;25.18;49.77;99734.19;7315424;19;128870;-39
2022/07/07 04:34:55;;;;;;;26.80;2.50;;;;;;;25.18;50.13;99728.09;7314958;19;129953;-38
2022/07/07 04:37:21;;;;;;;24.73;2.13;;;;;;;25.16;50.43;99730.88;7314377;19;132522;-38
2022/07/07 04:39:46;;;;;;;43.95;3.40;;;;;;;25.17;48.51;99719.34;7315403;19;130260;-38
2022/07/07 04:42:11;;;;;;;25.80;2.10;;;;;;;25.11;49.12;99721.81;7312989;19;129184;-39
2022/07/07 04:44:37;;;;;;;21.77;2.10;;;;;;;25.10;49.62;99714.91;7317267;19;129141;-38
2022/07/07 04:47:03;;;;;;;22.90;2.03;;;;;;;25.09;49.80;99715.91;7313258;19;130753;-37
2022/07/07 04:49:28;;;;;;;54.17;5.10;;;;;;;25.08;49.96;99712.44;7314653;19;130476;-39
2022/07/07 04:51:54;;;;;;;52.03;4.53;;;;;;;25.07;49.94;99709.97;7310968;19;130560;-38
2022/07/07 04:54:19;;;;;;;46.03;4.23;;;;;;;25.06;50.13;99713.56;7311938;19;130120;-38
2022/07/07 04:56:44;;;;;;;26.23;2.25;;;;;;;24.98;50.28;99706.47;7309395;19;130145;-38
2022/07/07 04:59:10;;;;;;;39.87;3.27;;;;;;;25.06;49.97;99710.94;7312802;19;129477;-40
2022/07/07 05:01:36;;;;;;;34.23;2.93;;;;;;;25.06;49.31;99710.94;7312693;19;129535;-39
2022/07/07 05:04:01;;;;;;;43.75;3.72;;;;;;;25.04;50.36;99712.91;7310929;19;129807;-39
2022/07/07 05:06:27;;;;;;;33.53;3.17;;;;;;;25.04;50.20;99705.81;7315291;19;129180;-39
2022/07/07 05:08:52;;;;;;;36.50;3.43;;;;;;;25.03;50.12;99688.41;7311611;19;130362;-40
2022/07/07 05:11:18;;;;;;;36.43;3.23;;;;;;;24.96;50.69;99683.94;7307643;19;130106;-37
2022/07/07 05:13:43;;;;;;;23.93;2.30;;;;;;;25.02;49.97;99697.28;7303545;19;129383;-39
2022/07/07 05:16:08;;;;;;;61.60;5.30;;;;;;;25.05;49.33;99696.97;7307630;19;129545;-39
2022/07/07 05:18:34;;;;;;;52.80;4.33;;;;;;;25.06;49.61;99708.31;7314060;19;130482;-40
2022/07/07 05:20:59;;;;;;;34.90;3.27;;;;;;;25.03;49.90;99703.38;7308730;19;128963;-41
2022/07/07 05:23:25;;;;;;;61.43;5.10;;;;;;;25.05;49.97;99706.66;7312863;19;129584;-37
2022/07/07 05:25:51;;;;;;;29.90;2.73;;;;;;;24.95;50.12;99684.91;7312889;19;129704;-38
2022/07/07 05:28:17;;;;;;;32.45;2.70;;;;;;;25.00;50.88;99703.69;7315071;19;131112;-38
2022/07/07 05:30:42;;;;;;;24.07;2.63;;;;;;;24.97;49.50;99701.38;7314481;19;128892;-37
2022/07/07 05:33:08;;;;;;;35.67;3.57;;;;;;;24.98;49.64;99700.38;7311993;19;129444;-38
2022/07/07 05:35:36;;;;;;;37.50;3.42;;;;;;;24.97;50.27;99699.56;7314754;19;128941;-40
2022/07/07 05:38:03;;;;;;;35.80;3.40;;;;;;;24.95;49.86;99703.34;7311202;19;129284;-38
2022/07/07 13:42:43;;;;;;;24.88;3.63;;;;;;;22.24;57.87;99596.53;7333746;19;130037;-70
2022/07/07 13:45:08;;;;;;;183.90;19.33;;;;;;;22.26;58.43;99591.97;7174243;19;3100362;-70
2022/07/07 13:47:34;;;;;;;20.25;2.60;;;;;;;22.29;58.21;99594.31;7330932;19;132002;-71
2022/07/07 13:49:59;;;;;;;14.13;2.15;;;;;;;22.35;58.73;99604.19;7347582;19;129006;-71
2022/07/07 13:52:24;;;;;;;33.03;3.85;;;;;;;22.43;58.39;99601.72;7346091;19;130753;-71
2022/07/07 13:54:50;;;;;;;17.25;2.72;;;;;;;22.51;59.43;99605.22;7346910;19;129132;-71
2022/07/07 13:57:15;;;;;;;8.10;1.60;;;;;;;22.59;58.79;99605.34;7343249;19;131198;-71
2022/07/07 13:59:41;;;;;;;25.77;3.03;;;;;;;22.71;58.63;99606.00;7347727;19;129625;-71
2022/07/07 14:02:07;;;;;;;16.25;1.88;;;;;;;22.83;58.14;99613.50;7343402;19;130284;-72
2022/07/07 14:04:34;;;;;;;17.10;2.27;;;;;;;22.92;58.97;99612.59;7348145;19;130447;-71
2022/07/07 14:06:59;;;;;;;29.63;3.47;;;;;;;23.07;58.01;99618.19;7348732;19;129503;-71
2022/07/07 14:09:25;;;;;;;26.00;3.03;;;;;;;23.15;58.01;99605.16;7347378;19;129859;-71
2022/07/07 14:11:51;;;;;;;20.70;2.03;;;;;;;23.23;57.68;99606.06;7347772;19;130293;-71
2022/07/07 14:14:17;;;;;;;31.25;3.25;;;;;;;23.40;56.84;99599.19;7340156;19;129615;-70
2022/07/07 14:16:42;;;;;;;14.43;2.00;;;;;;;23.52;57.21;99600.59;7344389;19;129553;-67
2022/07/07 14:19:07;;;;;;;86.68;7.25;;;;;;;23.57;57.20;99600.97;7335886;19;129242;-40
2022/07/07 14:21:33;;;;;;;33.15;3.20;;;;;;;23.60;56.97;99597.22;7338350;19;130626;-38
2022/07/07 14:23:58;;;;;;;33.23;3.27;;;;;;;23.69;58.00;99594.50;7344675;19;129442;-40
2022/07/07 14:26:24;;;;;;;32.70;3.38;;;;;;;23.75;57.67;99596.50;7344322;19;129185;-39
2022/07/07 14:28:53;;;;;;;17.15;2.05;;;;;;;23.80;55.83;99591.63;7343501;19;129774;-39
2022/07/07 14:31:18;;;;;;;20.50;2.28;;;;;;;23.88;56.62;99604.78;7344472;19;131231;-40
2022/07/07 14:33:43;;;;;;;33.80;3.83;;;;;;;23.89;56.57;99588.06;7347584;19;130544;-40
2022/07/07 14:36:09;;;;;;;23.57;2.40;;;;;;;23.95;56.38;99594.50;7345667;19;130363;-40
2022/07/07 14:38:34;;;;;;;40.90;4.23;;;;;;;23.98;56.75;99584.53;7342744;19;130190;-40
2022/07/07 14:41:00;;;;;;;16.80;1.90;;;;;;;24.10;56.22;99591.19;7344013;19;129595;-39
2022/07/07 14:43:25;;;;;;;29.43;2.93;;;;;;;24.08;56.24;99590.50;7343527;19;129175;-39
2022/07/07 14:45:50;;;;;;;26.90;2.70;;;;;;;24.09;55.70;99591.34;7344010;19;129834;-40
2022/07/07 14:48:16;;;;;;;27.92;2.95;;;;;;;24.12;56.98;99581.34;7338142;19;129453;-39
2022/07/07 14:50:41;;;;;;;37.90;4.37;;;;;;;24.14;57.00;99579.41;7341656;19;129365;-40
2022/07/07 14:53:07;;;;;;;26.10;2.47;;;;;;;24.16;57.08;99572.16;7327448;19;130441;-40
2022/07/07 14:55:32;;;;;;;23.23;2.63;;;;;;;24.19;55.94;99569.25;7315871;19;131488;-40
2022/07/07 14:57:58;;;;;;;38.10;4.17;;;;;;;24.21;56.98;99574.34;7315109;19;130387;-40
2022/07/07 15:00:25;;;;;;;16.67;2.13;;;;;;;24.17;55.83;99541.47;7315939;19;129342;-40
2022/07/07 15:02:51;;;;;;;20.63;2.35;;;;;;;24.25;56.88;99576.50;7312454;19;129446;-40
2022/07/07 15:05:16;;;;;;;16.38;1.92;;;;;;;24.26;56.70;99556.31;7316761;19;129734;-38
2022/07/07 15:07:42;;;;;;;14.07;2.10;;;;;;;24.27;56.83;99553.50;7316609;19;131035;-40
2022/07/07 15:10:08;;;;;;;27.70;2.77;;;;;;;24.29;56.31;99558.63;7316932;19;129612;-39
2022/07/07 15:12:35;;;;;;;19.10;2.17;;;;;;;24.28;56.54;99560.41;7315391;19;131028;-39
2022/07/07 15:15:00;;;;;;;35.00;3.60;;;;;;;24.24;55.49;99561.72;7314643;19;130135;-40
2022/07/07 15:17:26;;;;;;;20.63;2.37;;;;;;;24.33;56.33;99565.19;7315581;19;130512;-37
2022/07/07 15:19:52;;;;;;;21.30;2.55;;;;;;;24.36;55.78;99557.81;7311864;19;129382;-40
2022/07/07 15:22:17;;;;;;;14.67;2.13;;;;;;;24.35;56.34;99561.44;7313106;19;129091;-39
2022/07/07 15:24:43;;;;;;;23.40;2.50;;;;;;;24.34;55.27;99566.84;7315283;19;129525;-40
2022/07/07 15:27:08;;;;;;;15.77;1.83;;;;;;;24.27;55.83;99548.25;7316824;19;130255;-40
2022/07/07 15:29:34;;;;;;;26.93;3.07;;;;;;;24.37;56.07;99564.72;7314117;19;129009;-40
2022/07/07 15:31:59;;;;;;;25.15;2.72;;;;;;;24.28;55.82;99560.41;7315670;19;130135;-39
2022/07/07 15:34:25;;;;;;;23.60;2.60;;;;;;;24.36;55.71;99563.06;7317429;19;130246;-40
2022/07/07 15:36:50;;;;;;;21.83;2.47;;;;;;;24.39;55.27;99568.00;7315587;19;130671;-36
2022/07/07 15:39:17;;;;;;;25.67;2.83;;;;;;;24.40;54.95;99564.41;7312667;19;128997;-40
2022/07/07 15:41:42;;;;;;;19.52;2.10;;;;;;;24.39;54.33;99562.75;7315247;19;129422;-39
2022/07/07 15:44:08;;;;;;;27.67;2.83;;;;;;;24.40;54.80;99564.41;7315960;19;130363;-39
2022/07/07 15:46:33;;;;;;;26.73;2.50;;;;;;;24.39;55.33;99568.00;7313260;19;132887;-40
2022/07/07 15:48:59;;;;;;;21.37;2.20;;;;;;;24.42;54.90;99570.34;7313469;19;129212;-40
2022/07/07 15:51:24;;;;;;;32.33;3.55;;;;;;;24.42;55.78;99570.34;7315727;19;128780;-39
2022/07/07 15:53:50;;;;;;;25.08;2.63;;;;;;;24.42;55.16;99572.97;7315577;19;130117;-37
2022/07/07 15:56:16;;;;;;;15.43;2.13;;;;;;;24.42;54.72;99574.75;7315537;19;130695;-40
2022/07/07 15:58:42;;;;;;;30.20;2.80;;;;;;;24.43;55.84;99577.22;7313699;19;129241;-38
2022/07/07 16:01:09;;;;;;;17.93;2.03;;;;;;;24.42;55.71;99570.34;7314788;19;130352;-40
2022/07/07 16:06:24;;;;;;;26.45;2.75;;;;;;;24.44;55.18;99573.59;7314187;19;129389;-39
2022/07/07 16:08:49;;;;;;;22.10;2.10;;;;;;;24.44;54.54;99570.19;7315348;19;129095;-38
2022/07/07 16:11:15;;;;;;;21.53;2.40;;;;;;;24.43;55.37;99577.22;7315447;19;128951;-39
2022/07/07 16:13:41;;;;;;;25.53;2.67;;;;;;;24.42;54.05;99567.72;7315186;19;130277;-37
2022/07/07 16:16:06;;;;;;;12.50;1.60;;;;;;;24.43;54.37;99565.88;7315458;19;130377;-39
2022/07/07 16:18:32;;;;;;;30.10;3.05;;;;;;;24.43;55.27;99558.00;7313434;19;128718;-40
2022/07/07 16:20:57;;;;;;;21.58;2.25;;;;;;;24.33;54.98;99545.00;7314429;19;128927;-39
2022/07/07 16:23:22;;;;;;;18.90;2.03;;;;;;;24.44;54.84;99560.47;7316041;19;129738;-40
2022/07/07 16:25:50;;;;;;;23.45;2.38;;;;;;;24.44;55.58;99557.84;7314265;19;129157;-40
2022/07/07 16:28:15;;;;;;;17.45;2.05;;;;;;;24.45;54.94;99556.03;7312927;19;129139;-40
2022/07/07 16:30:41;;;;;;;42.35;4.45;;;;;;;24.37;54.81;99551.59;7314313;19;128979;-37
2022/07/07 16:33:07;;;;;;;23.25;2.58;;;;;;;24.43;55.45;99558.81;7313663;19;130245;-39
2022/07/07 16:35:33;;;;;;;20.85;2.42;;;;;;;24.37;56.05;99559.47;7312935;19;129203;-40
2022/07/07 16:37:58;;;;;;;36.70;3.35;;;;;;;24.44;53.54;99564.91;7313643;19;131026;-40
2022/07/07 16:40:23;;;;;;;34.53;3.38;;;;;;;24.45;55.18;99556.88;7310249;19;129726;-38
2022/07/07 16:42:49;;;;;;;29.20;2.97;;;;;;;24.48;55.57;99568.06;7311778;19;129055;-40
2022/07/07 16:45:14;;;;;;;36.13;3.30;;;;;;;24.47;54.66;99564.59;7311855;19;129265;-38
2022/07/07 16:47:39;;;;;;;40.90;3.78;;;;;;;24.48;54.38;99552.28;7312391;19;129497;-38
2022/07/07 16:50:05;;;;;;;29.52;3.35;;;;;;;24.46;54.44;99560.34;7312865;19;129273;-39
2022/07/07 16:52:30;;;;;;;28.02;2.65;;;;;;;24.46;55.29;99555.88;7312310;19;129842;-40
2022/07/07 16:54:56;;;;;;;23.03;2.30;;;;;;;24.48;55.22;99560.16;7313365;19;130346;-38
2022/07/07 16:57:23;;;;;;;35.10;3.17;;;;;;;24.48;55.01;99565.44;7312775;19;129236;-40
2022/07/07 16:59:48;;;;;;;;;;;;;;;24.55;57.52;99567.25;7311725;19;129061;-40
2022/07/07 17:02:13;;;;;;;35.80;3.17;;;;;;;24.42;55.42;99562.44;7309819;19;130248;-41
2022/07/07 17:04:39;;;;;;;24.40;2.50;;;;;;;24.51;55.22;99578.25;7313027;19;130318;-39
2022/07/07 17:07:04;;;;;;;33.83;3.65;;;;;;;24.48;55.34;99585.47;7312498;19;128956;-38
2022/07/07 17:09:30;;;;;;;32.87;3.37;;;;;;;24.49;55.39;99583.66;7309959;19;129029;-40
2022/07/07 17:11:55;;;;;;;28.00;2.70;;;;;;;24.49;54.64;99581.03;7313290;19;130736;-39
2022/07/07 17:14:20;;;;;;;12.23;1.50;;;;;;;24.48;55.30;99577.56;7312321;19;129571;-39
2022/07/07 17:16:46;;;;;;;32.17;2.97;;;;;;;24.48;54.88;99579.38;7311310;19;128832;-39
2022/07/07 17:19:11;;;;;;;41.87;3.80;;;;;;;24.48;54.68;99582.81;7309230;19;129548;-37
2022/07/07 17:21:37;;;;;;;22.77;2.20;;;;;;;24.40;54.71;99563.56;7310376;19;130133;-38
2022/07/07 17:24:02;;;;;;;39.53;3.67;;;;;;;24.51;55.37;99586.13;7312568;19;130281;-40
2022/07/07 17:26:27;;;;;;;33.58;3.45;;;;;;;24.51;54.70;99596.66;7311179;19;130786;-37
2022/07/07 17:28:53;;;;;;;23.23;2.38;;;;;;;24.49;55.20;99589.72;7309567;19;129728;-38
2022/07/07 17:31:18;;;;;;;27.87;2.63;;;;;;;24.41;55.46;99573.94;7308722;19;129410;-39
2022/07/07 17:33:44;;;;;;;24.20;2.60;;;;;;;24.48;55.04;99592.50;7309842;19;131164;-39
2022/07/07 17:36:10;;;;;;;37.87;3.40;;;;;;;24.51;55.14;99594.81;7310977;19;129020;-38
2022/07/07 17:38:36;;;;;;;39.80;3.83;;;;;;;24.51;54.57;99596.66;7310162;19;128964;-38
2022/07/07 17:41:02;;;;;;;46.23;4.07;;;;;;;24.51;54.83;99601.91;7309817;19;129362;-38
2022/07/07 17:43:27;;;;;;;36.60;3.40;;;;;;;24.51;54.13;99601.91;7308184;19;131876;-37
2022/07/07 17:45:53;;;;;;;34.10;3.37;;;;;;;24.51;55.62;99594.00;7310920;19;129202;-40
2022/07/07 17:48:19;;;;;;;40.93;3.67;;;;;;;24.51;55.45;99596.66;7309803;19;129936;-40
2022/07/07 17:50:44;;;;;;;25.73;2.90;;;;;;;24.51;55.84;99594.00;7310669;19;130743;-40
2022/07/07 17:53:10;;;;;;;26.13;2.42;;;;;;;24.40;54.91;99582.81;7310507;19;129672;-38
2022/07/07 17:55:35;;;;;;;25.47;2.50;;;;;;;24.51;54.33;99596.66;7311488;19;129522;-40
2022/07/07 17:58:01;;;;;;;24.60;2.50;;;;;;;24.43;54.89;99590.38;7311658;19;128950;-40
2022/07/07 18:00:26;;;;;;;24.73;2.70;;;;;;;24.51;55.35;99596.66;7310124;19;131178;-39
2022/07/07 18:02:52;;;;;;;53.97;5.22;;;;;;;24.52;55.08;99608.78;7293353;19;129680;-36
2022/07/07 18:05:18;;;;;;;31.50;3.20;;;;;;;24.51;55.83;99596.66;7304477;19;130047;-39
2022/07/07 18:07:43;;;;;;;26.98;2.58;;;;;;;24.52;55.65;99608.78;7310098;19;130541;-40
2022/07/07 18:10:09;;;;;;;29.08;2.70;;;;;;;24.52;55.81;99614.88;7311419;19;130501;-39
2022/07/07 18:12:35;;;;;;;20.60;2.30;;;;;;;24.52;55.52;99603.53;7309250;19;129428;-38
2022/07/07 18:15:00;;;;;;;33.97;2.87;;;;;;;24.48;54.57;99592.50;7310470;19;129545;-38
2022/07/07 18:17:26;;;;;;;19.40;2.37;;;;;;;24.53;55.19;99600.75;7310293;19;128992;-40
2022/07/07 18:19:51;;;;;;;21.03;2.03;;;;;;;24.52;55.76;99612.25;7307620;19;129433;-39
2022/07/07 18:22:16;;;;;;;26.70;2.37;;;;;;;24.53;55.20;99615.72;7308379;19;129158;-38
2022/07/07 18:24:42;;;;;;;34.97;3.33;;;;;;;24.52;55.11;99609.63;7310169;19;128822;-39
2022/07/07 18:27:07;;;;;;;24.15;2.40;;;;;;;24.53;55.67;99615.72;7311579;19;130043;-39
2022/07/07 18:29:33;;;;;;;24.13;2.33;;;;;;;24.52;55.41;99622.78;7314477;19;130107;-38
2022/07/07 18:31:59;;;;;;;25.63;2.53;;;;;;;24.43;55.27;99615.81;7315810;19;130200;-40
2022/07/07 18:34:25;;;;;;;24.33;2.35;;;;;;;24.52;54.36;99632.44;7318019;19;129576;-40
2022/07/07 18:36:50;;;;;;;5.03;1.10;;;;;;;24.44;55.13;99620.91;7315658;19;129052;-39
2022/07/07 18:39:16;;;;;;;28.73;2.73;;;;;;;24.52;55.65;99637.72;7315591;19;129276;-40
2022/07/07 18:41:41;;;;;;;36.13;3.15;;;;;;;24.51;54.94;99641.31;7311994;19;130452;-37
2022/07/07 18:44:07;;;;;;;32.60;2.97;;;;;;;24.51;55.11;99628.19;7315601;19;129506;-41
2022/07/07 18:48:11;;;;;;;33.42;3.95;;;;;;;24.40;55.64;99635.34;7262825;19;132045;-69
2022/07/07 18:50:37;;;;;;;51.60;4.97;;;;;;;24.45;56.31;99650.66;7173831;19;3161190;-70
2022/07/07 18:53:03;;;;;;;51.63;4.87;;;;;;;24.45;56.14;99655.91;7340397;19;131646;-70
2022/07/07 18:55:28;;;;;;;17.67;2.10;;;;;;;24.45;55.48;99659.38;7345389;19;129654;-68
2022/07/07 18:57:54;;;;;;;22.00;2.50;;;;;;;24.48;55.74;99660.03;7346173;19;129538;-70
2022/07/07 19:00:19;;;;;;;17.57;2.50;;;;;;;24.48;54.53;99664.31;7347927;19;128919;-71
2022/07/07 19:02:45;;;;;;;16.38;2.15;;;;;;;24.48;55.38;99665.31;7348008;19;129524;-68
2022/07/07 19:05:12;;;;;;;31.40;3.10;;;;;;;24.52;55.74;99677.13;7348400;19;129926;-69
2022/07/07 19:07:37;;;;;;;31.05;3.15;;;;;;;24.48;56.19;99669.56;7340955;19;129388;-70
2022/07/07 19:10:04;;;;;;;48.03;4.63;;;;;;;24.49;56.03;99667.78;7341519;19;129668;-70
2022/07/07 19:12:29;;;;;;;27.63;2.83;;;;;;;24.51;55.23;99680.75;7343001;19;130855;-68
2022/07/07 19:18:14;;;;;;;84.35;9.15;;;;;;;24.48;55.58;99682.72;7314860;19;129496;-67
2022/07/07 19:20:40;;;;;;;29.33;3.27;;;;;;;24.48;54.73;99686.31;7179522;19;3132649;-70